Storm Lake, IA

3:49 PM CST on February 06, 2016 (GMT -0600)
Storm Lake Municipal

Weather History for KSLB - November, 2012

Change the Weather History Date:

Thursday, November 15, 2012

  Actual Average Record
Temperature  
Mean Temperature 40 °F -  
Max Temperature 53 °F 44 °F 73 °F (2001)
Min Temperature 26 °F 28 °F 12 °F (2000)
Degree Days  
Heating Degree Days 24    
Moisture  
Dew Point 30 °F    
Average Humidity 67    
Maximum Humidity 87    
Minimum Humidity 47    
Precipitation  
Precipitation 0.00 in - - ()
Sea Level Pressure  
Sea Level Pressure 30.28 in    
Wind  
Wind Speed 11 mph (NW)    
Max Wind Speed 15 mph    
Max Gust Speed 21 mph    
Visibility 10 miles    
Events      
Averages and records for this station are not official NWS values.
T = Trace of Precipitation, MM = Missing Value Source: NWS Daily Summary

Daily Weather History Graph

Daily Weather History Graph

Search for Another Location

Airport or City:

Trip Planner

Search our weather history database for the weather conditions in past years. The results will help you decide how hot, cold, wet, or windy it might be!

Date:

Astronomy

Nov. 15, 2012 Rise Set
Actual Time 7:12 AM CST 4:57 PM CST
Civil Twilight 6:42 AM CST 5:28 PM CST
Nautical Twilight 6:08 AM CST 6:02 PM CST
Astronomical Twilight 5:35 AM CST 6:35 PM CST
Moon 9:11 AM CST (11/15) 6:48 PM CST (11/15)
Length of Visible Light 10h 45m
Length of Day
9h 44m
Waxing Crescent, 5% of the Moon is Illuminated
Nov 15
Waxing Crescent
Nov 20
First Quarter
Nov 28
Full
Dec 6
Last Quarter
Dec 13
New

Hourly Weather History & Observations

Time (CST) Temp. Windchill Dew Point Humidity Pressure Visibility Wind Dir Wind Speed Gust Speed Precip Events Conditions
12:15 AM 41.0 °F 33.5 °F 30.2 °F 65% 30.16 in - South 13.8 mph - N/A   Clear
12:35 AM 41.0 °F 34.3 °F 30.2 °F 65% 30.16 in 10.0 mi South 11.5 mph - N/A   Partly Cloudy
12:55 AM 41.0 °F 33.9 °F 30.2 °F 65% 30.15 in 10.0 mi South 12.7 mph - N/A   Mostly Cloudy
1:15 AM 41.0 °F 34.7 °F 30.2 °F 65% 30.15 in 10.0 mi South 10.4 mph - N/A   Overcast
1:35 AM 41.0 °F 35.2 °F 30.2 °F 65% 30.15 in 10.0 mi South 9.2 mph - N/A   Overcast
1:55 AM 41.0 °F 35.2 °F 30.2 °F 65% 30.15 in 10.0 mi South 9.2 mph - N/A   Overcast
2:15 AM 39.2 °F 33.0 °F 30.2 °F 70% 30.16 in 10.0 mi South 9.2 mph - N/A   Scattered Clouds
2:35 AM 39.2 °F 33.0 °F 30.2 °F 70% 30.16 in 10.0 mi SSW 9.2 mph - N/A   Clear
2:55 AM 39.2 °F 32.0 °F 30.2 °F 70% 30.16 in 10.0 mi SSW 11.5 mph - N/A   Clear
3:15 AM 39.2 °F 32.5 °F 30.2 °F 70% 30.15 in 10.0 mi SSW 10.4 mph - N/A   Clear
3:35 AM 37.4 °F 31.4 °F 30.2 °F 75% 30.16 in 10.0 mi SSW 8.1 mph - N/A   Clear
3:55 AM 37.4 °F 30.3 °F 28.4 °F 70% 30.15 in 10.0 mi SSW 10.4 mph - N/A   Clear
4:15 AM 37.4 °F 29.8 °F 30.2 °F 75% 30.15 in 10.0 mi SSW 11.5 mph - N/A   Partly Cloudy
4:35 AM 37.4 °F 31.4 °F 30.2 °F 75% 30.15 in 10.0 mi SW 8.1 mph - N/A   Partly Cloudy
4:55 AM 37.4 °F 31.4 °F 30.2 °F 75% 30.16 in 10.0 mi SW 8.1 mph - N/A   Mostly Cloudy
5:15 AM 37.4 °F 30.8 °F 30.2 °F 75% 30.17 in 10.0 mi WSW 9.2 mph - N/A   Mostly Cloudy
5:35 AM 39.2 °F 33.0 °F 30.2 °F 70% 30.17 in 10.0 mi WSW 9.2 mph - N/A   Mostly Cloudy
5:55 AM 37.4 °F 30.3 °F 30.2 °F 75% 30.18 in 10.0 mi WSW 10.4 mph - N/A   Mostly Cloudy
6:15 AM 37.4 °F 30.8 °F 30.2 °F 75% 30.18 in 10.0 mi West 9.2 mph - N/A   Mostly Cloudy
6:35 AM 35.6 °F 29.2 °F 30.2 °F 81% 30.19 in 10.0 mi West 8.1 mph - N/A   Overcast
6:55 AM 35.6 °F 28.0 °F 30.2 °F 81% 30.20 in 10.0 mi WSW 10.4 mph - N/A   Overcast
7:15 AM 37.4 °F 30.3 °F 30.2 °F 75% 30.20 in 10.0 mi West 10.4 mph - N/A   Overcast
7:35 AM 37.4 °F 30.3 °F 30.2 °F 75% 30.21 in 10.0 mi West 10.4 mph - N/A   Partly Cloudy
7:55 AM 33.8 °F 26.4 °F 30.2 °F 87% 30.22 in 10.0 mi WNW 9.2 mph - N/A   Clear
8:15 AM 35.6 °F 28.0 °F 30.2 °F 81% 30.23 in 10.0 mi West 10.4 mph - N/A   Clear
8:35 AM 39.2 °F 31.6 °F 32.0 °F 75% 30.23 in 10.0 mi WNW 12.7 mph - N/A   Clear
8:55 AM 41.0 °F 35.2 °F 32.0 °F 70% 30.24 in 10.0 mi WNW 9.2 mph - N/A   Clear
9:15 AM 42.8 °F 36.6 °F 33.8 °F 70% 30.25 in 10.0 mi NW 11.5 mph - N/A   Clear
9:35 AM 44.6 °F 38.8 °F 33.8 °F 66% 30.25 in 10.0 mi NW 11.5 mph - N/A   Clear
10:15 AM 46.4 °F 42.4 °F 35.6 °F 66% 30.27 in 10.0 mi NW 8.1 mph - N/A   Clear
10:35 AM 48.2 °F - 35.6 °F 62% 30.27 in 10.0 mi NW 8.1 mph - N/A   Clear
10:55 AM 50.0 °F - 35.6 °F 58% 30.28 in 10.0 mi NW 10.4 mph - N/A   Clear
11:15 AM 50.0 °F - 35.6 °F 58% 30.28 in 10.0 mi NNW 9.2 mph - N/A   Clear
11:35 AM 50.0 °F - 35.6 °F 58% 30.28 in 10.0 mi NNW 9.2 mph - N/A   Clear
11:55 AM 51.8 °F - 35.6 °F 54% 30.28 in 10.0 mi NW 8.1 mph - N/A   Clear
12:15 PM 51.8 °F - 33.8 °F 50% 30.27 in 10.0 mi NNW 8.1 mph 15.0 mph N/A   Clear
12:35 PM 53.6 °F - 33.8 °F 47% 30.27 in 10.0 mi NNW 11.5 mph - N/A   Clear
12:55 PM 53.6 °F - 33.8 °F 47% 30.28 in 10.0 mi NNW 12.7 mph - N/A   Clear
1:15 PM 53.6 °F - 33.8 °F 47% 30.28 in 10.0 mi NW 11.5 mph - N/A   Clear
1:35 PM 53.6 °F - 33.8 °F 47% 30.28 in 10.0 mi NNW 11.5 mph - N/A   Clear
1:55 PM 53.6 °F - 33.8 °F 47% 30.28 in 10.0 mi NNW 12.7 mph - N/A   Clear
2:15 PM 53.6 °F - 33.8 °F 47% 30.28 in 10.0 mi NNW 13.8 mph - N/A   Clear
2:35 PM 53.6 °F - 33.8 °F 47% 30.28 in 10.0 mi NNW 10.4 mph 17.3 mph N/A   Clear
2:55 PM 53.6 °F - 33.8 °F 47% 30.29 in 10.0 mi NNW 12.7 mph - N/A   Clear
3:15 PM 51.8 °F - 33.8 °F 50% 30.29 in 10.0 mi NW 12.7 mph - N/A   Clear
3:35 PM 51.8 °F - 32.0 °F 47% 30.30 in 10.0 mi NNW 12.7 mph - N/A   Clear
3:55 PM 51.8 °F - 32.0 °F 47% 30.31 in 10.0 mi NW 13.8 mph - N/A   Clear
4:15 PM 50.0 °F - 33.8 °F 54% 30.32 in 10.0 mi NNW 11.5 mph - N/A   Clear
4:35 PM 48.2 °F - 33.8 °F 58% 30.32 in 10.0 mi NW 10.4 mph - N/A   Clear
4:55 PM 46.4 °F 41.9 °F 33.8 °F 62% 30.33 in 10.0 mi NW 9.2 mph - N/A   Clear
5:15 PM 42.8 °F 38.0 °F 33.8 °F 70% 30.34 in 10.0 mi NNW 8.1 mph - N/A   Clear
5:35 PM 41.0 °F 35.2 °F 32.0 °F 70% 30.35 in - North 9.2 mph - N/A   Clear
5:55 PM 39.2 °F 33.6 °F 30.2 °F 70% 30.35 in 10.0 mi North 8.1 mph - N/A   Clear
6:15 PM 41.0 °F 34.3 °F 30.2 °F 65% 30.36 in 10.0 mi North 11.5 mph - N/A   Clear
6:35 PM 39.2 °F 32.0 °F 30.2 °F 70% 30.37 in 10.0 mi North 11.5 mph - N/A   Clear
6:55 PM 39.2 °F 31.6 °F 30.2 °F 70% 30.38 in 10.0 mi North 12.7 mph - N/A   Clear
7:15 PM 37.4 °F 28.9 °F 28.4 °F 70% 30.39 in 10.0 mi North 13.8 mph 20.7 mph N/A   Clear
7:35 PM 35.6 °F 27.1 °F 28.4 °F 75% 30.39 in 10.0 mi North 12.7 mph - N/A   Clear
7:55 PM 35.6 °F 26.2 °F 26.6 °F 70% 30.39 in 10.0 mi North 15.0 mph - N/A   Clear
8:15 PM 33.8 °F 25.3 °F 26.6 °F 75% 30.40 in 10.0 mi North 11.5 mph - N/A   Clear
8:35 PM 32.0 °F 23.0 °F 24.8 °F 75% 30.40 in 10.0 mi North 11.5 mph - N/A   Clear
8:55 PM 32.0 °F 23.0 °F 24.8 °F 75% 30.41 in 10.0 mi North 11.5 mph - N/A   Clear
9:15 PM 32.0 °F 24.8 °F 24.8 °F 75% 30.42 in 10.0 mi NNE 8.1 mph 13.8 mph N/A   Clear
9:35 PM 30.2 °F 20.8 °F 24.8 °F 80% 30.42 in 10.0 mi North 11.5 mph - N/A   Clear
9:55 PM 30.2 °F 20.8 °F 23.0 °F 75% 30.42 in 10.0 mi North 11.5 mph - N/A   Clear
10:15 PM 30.2 °F 20.8 °F 23.0 °F 75% 30.42 in 10.0 mi North 11.5 mph - N/A   Clear
10:35 PM 30.2 °F 20.8 °F 23.0 °F 75% 30.42 in 10.0 mi North 11.5 mph - N/A   Clear
10:55 PM 28.4 °F 18.5 °F 23.0 °F 80% 30.43 in 10.0 mi North 11.5 mph - N/A   Clear
11:15 PM 28.4 °F 18.5 °F 21.2 °F 74% 30.43 in 10.0 mi North 11.5 mph - N/A   Clear
11:35 PM 28.4 °F 18.5 °F 21.2 °F 74% 30.43 in 10.0 mi North 11.5 mph - N/A   Clear
11:55 PM 26.6 °F 16.8 °F 21.2 °F 80% 30.44 in 10.0 mi North 10.4 mph - N/A   Clear